Time;durP1;ratioP1;P1;durP2;ratioP2;P2;SDS_P1;SDS_P2;PMS_P1;PMS_P2;Temp;Humidity;BMP_temperature;BMP_pressure;BME280_temperature;BME280_humidity;BME280_pressure;Samples;Min_cycle;Max_cycle;Signal;HPM_P1;HPM_P2
2022/06/17 00:00:21;;;;;;;3.90;3.50;;;18.00;80.10;;;;;;2055990;28;20026;-68
2022/06/17 00:01:24;;;;;;;5.10;3.80;;;18.00;80.40;;;;;;2056151;28;20050;-68
2022/06/17 00:02:24;;;;;;;5.80;4.00;;;18.00;80.70;;;;;;2056069;28;20413;-67
2022/06/17 00:03:27;;;;;;;4.20;3.80;;;17.90;81.10;;;;;;2056190;28;20141;-68
2022/06/17 00:04:28;;;;;;;5.68;3.90;;;17.90;81.30;;;;;;2055589;28;20026;-70
2022/06/17 00:05:28;;;;;;;4.78;3.80;;;17.90;81.40;;;;;;2056117;28;20027;-67
2022/06/17 00:06:34;;;;;;;6.32;4.38;;;17.90;81.60;;;;;;2056179;28;20464;-68
2022/06/17 00:07:36;;;;;;;6.68;4.10;;;17.90;81.60;;;;;;2056258;28;20037;-68
2022/06/17 00:08:40;;;;;;;4.85;3.50;;;17.80;81.60;;;;;;2056123;28;20026;-68
2022/06/17 00:09:41;;;;;;;4.50;3.22;;;17.80;81.70;;;;;;2056140;28;20026;-68
2022/06/17 00:10:42;;;;;;;5.07;3.67;;;17.80;81.70;;;;;;2056058;28;20026;-68
2022/06/17 00:11:42;;;;;;;6.53;3.63;;;17.80;81.80;;;;;;2056174;28;20101;-69
2022/06/17 00:12:43;;;;;;;5.05;3.40;;;17.80;81.80;;;;;;2055464;28;20050;-68
2022/06/17 00:13:44;;;;;;;4.43;3.55;;;17.80;81.60;;;;;;2047258;28;20161;-68
2022/06/17 00:16:08;;;;;;;5.30;3.38;;;17.80;81.30;;;;;;2047380;29;20027;-68
2022/06/17 00:17:08;;;;;;;4.90;3.40;;;17.70;81.30;;;;;;2047971;28;20032;-69
2022/06/17 00:18:09;;;;;;;3.58;3.20;;;17.70;81.30;;;;;;2055910;28;20088;-68
2022/06/17 00:19:11;;;;;;;5.32;3.20;;;17.70;82.20;;;;;;2055713;28;20101;-67
2022/06/17 00:20:15;;;;;;;3.70;3.30;;;17.70;81.30;;;;;;2055894;28;20049;-68
2022/06/17 00:21:31;;;;;;;4.15;3.40;;;17.70;81.30;;;;;;2055901;28;20510;-68
2022/06/17 00:22:32;;;;;;;3.50;3.20;;;17.70;81.30;;;;;;2047293;29;20077;-68
2022/06/17 00:23:33;;;;;;;4.25;3.33;;;17.70;81.60;;;;;;2047327;29;20031;-68
2022/06/17 00:24:34;;;;;;;4.20;3.25;;;17.70;81.50;;;;;;2055172;28;20027;-67
2022/06/17 00:25:36;;;;;;;3.75;3.40;;;17.70;81.80;;;;;;2047523;28;20035;-68
2022/06/17 00:26:37;;;;;;;4.57;3.20;;;17.70;82.00;;;;;;2047645;28;20459;-68
2022/06/17 00:27:38;;;;;;;5.53;3.20;;;17.70;81.60;;;;;;2055970;28;20027;-70
2022/06/17 00:28:38;;;;;;;4.35;3.33;;;17.70;82.00;;;;;;2046917;28;20042;-69
2022/06/17 00:29:39;;;;;;;5.68;3.88;;;17.70;82.10;;;;;;2047311;29;20016;-68
2022/06/17 00:30:40;;;;;;;6.65;4.38;;;17.70;81.60;;;;;;2055701;28;20035;-68
2022/06/17 00:31:41;;;;;;;5.68;4.10;;;17.70;81.60;;;;;;2055823;28;20031;-68
2022/06/17 00:32:42;;;;;;;8.05;4.22;;;17.70;81.60;;;;;;2055792;28;20051;-68
2022/06/17 00:33:43;;;;;;;8.98;4.07;;;17.70;81.50;;;;;;2055767;28;20027;-68
2022/06/17 00:34:44;;;;;;;6.95;3.50;;;17.70;82.00;;;;;;2055868;28;20481;-68
2022/06/17 00:35:53;;;;;;;6.63;3.85;;;17.60;81.70;;;;;;2055850;28;20039;-68
2022/06/17 00:37:00;;;;;;;4.25;3.17;;;17.60;81.90;;;;;;2047310;29;20028;-69
2022/06/17 00:38:03;;;;;;;4.45;3.35;;;17.60;81.20;;;;;;2047165;28;20026;-69
2022/06/17 00:39:14;;;;;;;4.57;3.50;;;17.60;81.20;;;;;;2047204;28;20130;-68
2022/06/17 00:40:23;;;;;;;5.78;3.30;;;17.60;81.30;;;;;;2047185;28;20754;-68
2022/06/17 00:41:29;;;;;;;5.47;3.50;;;17.60;81.10;;;;;;2048710;28;20038;-68
2022/06/17 00:42:30;;;;;;;4.38;3.15;;;17.60;80.80;;;;;;2056147;28;20031;-69
2022/06/17 00:43:40;;;;;;;3.47;3.08;;;17.60;80.80;;;;;;2055770;28;20061;-68
2022/06/17 00:44:59;;;;;;;3.50;3.10;;;17.60;80.90;;;;;;2056073;28;20504;-68
2022/06/17 00:46:05;;;;;;;4.90;3.20;;;17.60;80.40;;;;;;2047079;29;20035;-69
2022/06/17 00:47:37;;;;;;;5.63;3.20;;;17.60;81.00;;;;;;2047975;28;20031;-69
2022/06/17 00:49:10;;;;;;;6.47;3.75;;;17.60;80.40;;;;;;2046896;29;20549;-70
2022/06/17 00:50:18;;;;;;;6.57;3.55;;;17.60;80.60;;;;;;2035015;28;20043;-69
2022/06/17 00:51:30;;;;;;;4.45;3.38;;;17.60;81.00;;;;;;2039233;29;20578;-69
2022/06/17 00:52:41;;;;;;;3.50;3.20;;;17.50;80.80;;;;;;2042145;28;20031;-68
2022/06/17 00:53:50;;;;;;;6.22;3.38;;;17.60;80.70;;;;;;2047002;29;20027;-67
2022/06/17 00:54:58;;;;;;;4.03;3.10;;;17.60;80.60;;;;;;2040182;29;20028;-67
2022/06/17 00:56:08;;;;;;;5.50;3.08;;;17.60;80.40;;;;;;2047134;28;20509;-68
2022/06/17 00:57:38;;;;;;;4.50;3.38;;;17.60;80.40;;;;;;2048391;28;20035;-69
2022/06/17 00:59:15;;;;;;;3.75;3.03;;;17.60;80.20;;;;;;2053164;28;20046;-70
2022/06/17 01:00:25;;;;;;;3.70;3.08;;;17.60;81.30;;;;;;2015312;29;20188;-70
2022/06/17 01:01:27;;;;;;;4.03;2.80;;;17.60;80.30;;;;;;2044035;29;20390;-70
2022/06/17 01:02:33;;;;;;;5.03;3.40;;;17.50;80.10;;;;;;2039400;29;20039;-71
2022/06/17 01:03:36;;;;;;;5.32;3.20;;;17.50;80.20;;;;;;2046856;29;20031;-70
2022/06/17 01:04:45;;;;;;;4.60;3.30;;;17.50;79.80;;;;;;2047448;28;20482;-70
2022/06/17 01:05:55;;;;;;;4.30;3.05;;;17.50;79.70;;;;;;2047163;29;20494;-71
2022/06/17 01:07:00;;;;;;;3.88;3.10;;;17.50;79.50;;;;;;2040553;29;20024;-71
2022/06/17 01:08:12;;;;;;;3.70;3.13;;;17.50;79.60;;;;;;2040009;29;20038;-70
2022/06/17 01:10:53;;;;;;;3.78;3.10;;;17.40;79.00;;;;;;2061000;28;20539;-70
2022/06/17 01:11:58;;;;;;;4.03;3.00;;;17.40;79.10;;;;;;2064130;28;20030;-70
2022/06/17 01:13:03;;;;;;;3.70;2.97;;;17.40;79.20;;;;;;2054785;28;20058;-70
2022/06/17 01:14:11;;;;;;;3.40;2.80;;;17.30;79.20;;;;;;2047702;28;20031;-69
2022/06/17 01:15:17;;;;;;;4.57;3.20;;;17.30;80.40;;;;;;2047418;28;20162;-70
2022/06/17 01:16:23;;;;;;;5.38;3.15;;;17.40;79.70;;;;;;2054878;28;20156;-69
2022/06/17 01:17:26;;;;;;;5.93;2.97;;;17.30;79.70;;;;;;2054811;28;20489;-69
2022/06/17 01:18:37;;;;;;;3.08;2.63;;;17.30;79.60;;;;;;2047248;28;20057;-69
2022/06/17 01:19:45;;;;;;;2.95;2.67;;;17.30;79.70;;;;;;2056053;28;20082;-69
2022/06/17 01:21:23;;;;;;;3.95;2.78;;;17.20;79.70;;;;;;2059134;28;20648;-70
2022/06/17 01:22:26;;;;;;;5.32;3.20;;;17.20;79.80;;;;;;2054773;28;20026;-70
2022/06/17 01:23:28;;;;;;;3.03;2.72;;;17.20;79.80;;;;;;2046820;28;20038;-69
2022/06/17 01:24:30;;;;;;;3.22;2.88;;;17.20;79.90;;;;;;2046468;28;20027;-69
2022/06/17 01:25:37;;;;;;;4.45;2.90;;;17.20;80.00;;;;;;2054819;28;20038;-69
2022/06/17 01:26:38;;;;;;;3.75;2.90;;;17.20;80.00;;;;;;2055727;28;20019;-69
2022/06/17 01:27:51;;;;;;;4.03;2.80;;;17.20;80.10;;;;;;2063429;28;20026;-70
2022/06/17 01:28:51;;;;;;;3.75;2.97;;;17.20;80.20;;;;;;2054401;28;20053;-69
2022/06/17 01:29:53;;;;;;;3.45;2.90;;;17.10;80.40;;;;;;2054682;28;20027;-69
2022/06/17 01:30:58;;;;;;;3.88;3.15;;;17.10;80.50;;;;;;2054539;28;20043;-69
2022/06/17 01:32:00;;;;;;;4.60;2.90;;;17.10;80.60;;;;;;2047211;28;20059;-69
2022/06/17 01:33:04;;;;;;;4.90;3.10;;;17.10;80.50;;;;;;2054827;28;20034;-70
2022/06/17 01:34:05;;;;;;;3.97;3.10;;;17.10;81.40;;;;;;2063409;28;20806;-69
2022/06/17 01:35:06;;;;;;;2.80;2.60;;;17.10;80.80;;;;;;2054463;28;20026;-70
2022/06/17 01:36:20;;;;;;;4.00;2.95;;;17.10;81.00;;;;;;2045936;28;20061;-71
2022/06/17 01:37:22;;;;;;;2.97;2.67;;;17.00;81.00;;;;;;2054819;28;20054;-71
2022/06/17 01:38:23;;;;;;;3.33;2.70;;;17.00;81.10;;;;;;2046491;28;20045;-70
2022/06/17 01:39:24;;;;;;;3.58;2.67;;;17.00;81.10;;;;;;2054832;28;20042;-70
2022/06/17 01:40:28;;;;;;;3.17;2.70;;;16.90;81.20;;;;;;2054504;28;20034;-71
2022/06/17 01:41:31;;;;;;;4.50;3.00;;;16.90;81.40;;;;;;2054522;28;20031;-70
2022/06/17 01:42:35;;;;;;;3.38;2.50;;;16.90;81.60;;;;;;2054517;28;20416;-71
2022/06/17 01:43:43;;;;;;;4.80;2.50;;;16.90;81.70;;;;;;2054757;28;20042;-71
2022/06/17 01:44:43;;;;;;;4.80;2.80;;;16.90;81.50;;;;;;2054642;28;20030;-70
2022/06/17 01:45:53;;;;;;;3.83;2.70;;;16.90;81.40;;;;;;2054643;28;20430;-71
2022/06/17 01:46:55;;;;;;;2.83;2.50;;;16.90;81.30;;;;;;2063315;28;20033;-72
2022/06/17 01:47:56;;;;;;;2.58;2.38;;;16.80;81.20;;;;;;2054396;28;20579;-71
2022/06/17 01:49:08;;;;;;;4.82;3.00;;;16.80;81.30;;;;;;2054346;28;20042;-71
2022/06/17 01:50:19;;;;;;;3.20;2.90;;;16.80;81.30;;;;;;2062407;28;20160;-71
2022/06/17 01:51:26;;;;;;;4.95;2.70;;;16.80;81.30;;;;;;2054627;28;20037;-70
2022/06/17 01:52:33;;;;;;;3.00;2.50;;;16.80;81.20;;;;;;2055249;28;20033;-71
2022/06/17 01:53:42;;;;;;;4.05;2.70;;;16.80;81.10;;;;;;2054512;28;20137;-70
2022/06/17 01:55:06;;;;;;;2.75;2.55;;;16.80;81.20;;;;;;2054687;28;20078;-71
2022/06/17 01:56:12;;;;;;;3.45;2.60;;;16.80;81.30;;;;;;2054577;28;20138;-70
2022/06/17 01:57:18;;;;;;;3.05;2.72;;;16.90;81.50;;;;;;2047205;28;20073;-70
2022/06/17 01:58:55;;;;;;;3.58;2.70;;;16.80;81.60;;;;;;2047276;28;20035;-70
2022/06/17 02:00:01;;;;;;;3.67;2.70;;;16.80;81.90;;;;;;2042956;29;20039;-71
2022/06/17 02:01:17;;;;;;;3.13;2.83;;;16.80;81.90;;;;;;2063235;28;20035;-71
2022/06/17 02:02:20;;;;;;;4.63;2.90;;;16.80;81.80;;;;;;2054532;28;20522;-71
2022/06/17 02:03:32;;;;;;;4.78;3.00;;;16.80;81.80;;;;;;2054560;28;20123;-70
2022/06/17 02:04:39;;;;;;;3.50;2.90;;;16.80;81.80;;;;;;2052950;28;20093;-71
2022/06/17 02:05:44;;;;;;;3.42;2.80;;;16.70;81.90;;;;;;2046819;29;20024;-70
2022/06/17 02:07:06;;;;;;;2.90;2.60;;;16.70;81.90;;;;;;2047627;28;20074;-71
2022/06/17 02:08:07;;;;;;;3.00;2.67;;;16.70;82.70;;;;;;2049549;28;20639;-70
2022/06/17 02:09:09;;;;;;;3.00;2.80;;;16.70;82.10;;;;;;2046892;28;20034;-70
2022/06/17 02:10:12;;;;;;;3.63;2.90;;;16.70;81.90;;;;;;2046957;28;20039;-71
2022/06/17 02:11:14;;;;;;;3.15;2.85;;;16.70;82.00;;;;;;2054717;28;20436;-71
2022/06/17 02:12:21;;;;;;;3.15;2.75;;;16.70;82.10;;;;;;2054984;28;20082;-71
2022/06/17 02:13:31;;;;;;;3.03;2.72;;;16.70;82.30;;;;;;2039958;29;20052;-71
2022/06/17 02:14:46;;;;;;;3.33;2.70;;;16.70;82.40;;;;;;2048929;28;20031;-71
2022/06/17 02:16:16;;;;;;;3.53;2.80;;;16.60;82.40;;;;;;2055265;28;20109;-71
2022/06/17 02:17:32;;;;;;;4.30;2.78;;;16.60;82.60;;;;;;2054898;28;20030;-70
2022/06/17 02:18:51;;;;;;;3.78;2.65;;;16.60;82.50;;;;;;2054822;28;20118;-70
2022/06/17 02:19:52;;;;;;;4.75;2.80;;;16.60;82.60;;;;;;2054698;28;20034;-70
2022/06/17 02:20:57;;;;;;;3.53;3.10;;;16.60;82.50;;;;;;2054387;28;20186;-70
2022/06/17 02:22:04;;;;;;;4.25;2.85;;;16.60;82.60;;;;;;2055078;28;20110;-70
2022/06/17 02:23:05;;;;;;;4.57;3.00;;;16.60;82.50;;;;;;2054759;28;20039;-70
2022/06/17 02:24:07;;;;;;;4.13;3.05;;;16.60;82.60;;;;;;2054972;28;20050;-70
2022/06/17 02:25:12;;;;;;;3.95;2.80;;;16.60;82.90;;;;;;2055418;28;20038;-70
2022/06/17 02:26:14;;;;;;;3.95;2.70;;;16.60;83.40;;;;;;2054633;28;20070;-70
2022/06/17 02:27:16;;;;;;;2.95;2.63;;;16.50;83.90;;;;;;2047081;28;20174;-71
2022/06/17 02:28:18;;;;;;;3.88;2.80;;;16.50;83.80;;;;;;2046592;28;20043;-70
2022/06/17 02:29:21;;;;;;;4.22;2.80;;;16.60;83.30;;;;;;2054407;28;20641;-70
2022/06/17 02:30:24;;;;;;;5.22;2.88;;;16.60;83.30;;;;;;2054578;28;20158;-70
2022/06/17 02:31:24;;;;;;;3.05;2.75;;;16.50;83.10;;;;;;2055201;28;20510;-70
2022/06/17 02:32:26;;;;;;;3.03;2.60;;;16.50;82.80;;;;;;2055035;28;20026;-70
2022/06/17 02:33:28;;;;;;;3.17;2.60;;;16.60;83.00;;;;;;2055012;28;20039;-70
2022/06/17 02:34:30;;;;;;;3.80;2.72;;;16.50;82.90;;;;;;2054706;28;20023;-70
2022/06/17 02:35:41;;;;;;;3.33;2.55;;;16.60;82.80;;;;;;2054793;28;20073;-70
2022/06/17 02:36:52;;;;;;;3.13;2.60;;;16.50;82.70;;;;;;2054955;28;20042;-70
2022/06/17 02:37:54;;;;;;;5.32;2.90;;;16.50;82.90;;;;;;2055052;28;20039;-71
2022/06/17 02:38:55;;;;;;;3.72;2.90;;;16.50;82.70;;;;;;2055246;28;20050;-71
2022/06/17 02:39:58;;;;;;;4.22;2.80;;;16.50;82.90;;;;;;2055114;28;20033;-71
2022/06/17 02:41:06;;;;;;;3.33;3.03;;;16.50;82.90;;;;;;2054447;28;20070;-70
2022/06/17 02:42:16;;;;;;;4.43;2.65;;;16.40;82.90;;;;;;2054587;28;20061;-70
2022/06/17 02:43:25;;;;;;;4.38;2.72;;;16.40;83.10;;;;;;2054516;28;20026;-71
2022/06/17 02:44:34;;;;;;;4.20;2.83;;;16.40;83.40;;;;;;2054543;28;20027;-71
2022/06/17 02:45:43;;;;;;;4.95;2.80;;;16.40;83.50;;;;;;2047651;28;20035;-70
2022/06/17 02:46:46;;;;;;;4.28;3.05;;;16.40;83.90;;;;;;2054409;28;20031;-71
2022/06/17 02:47:47;;;;;;;4.93;3.15;;;16.30;83.90;;;;;;2055380;28;20074;-70
2022/06/17 02:48:53;;;;;;;3.42;2.90;;;16.30;83.90;;;;;;2063864;28;20588;-70
2022/06/17 02:49:55;;;;;;;5.00;3.10;;;16.30;83.90;;;;;;2055970;28;20029;-70
2022/06/17 02:50:58;;;;;;;3.20;2.90;;;16.30;83.90;;;;;;2055875;28;20097;-70
2022/06/17 02:52:01;;;;;;;3.55;2.80;;;16.30;84.00;;;;;;2055896;28;20027;-70
2022/06/17 02:53:04;;;;;;;5.80;3.13;;;16.20;84.10;;;;;;2048243;28;20041;-70
2022/06/17 02:54:08;;;;;;;3.88;2.80;;;16.20;84.20;;;;;;2048335;28;20043;-70
2022/06/17 02:55:36;;;;;;;4.82;3.00;;;16.10;84.30;;;;;;2055960;28;20051;-70
2022/06/17 02:56:38;;;;;;;7.57;3.30;;;16.10;84.40;;;;;;2055998;28;20019;-70
2022/06/17 02:57:40;;;;;;;3.38;2.80;;;16.10;84.80;;;;;;2047974;28;20053;-70
2022/06/17 02:59:07;;;;;;;3.63;3.10;;;16.10;85.00;;;;;;2047644;28;20065;-70
2022/06/17 03:00:15;;;;;;;4.10;3.10;;;16.00;85.00;;;;;;2051532;28;20035;-71
2022/06/17 03:01:20;;;;;;;3.85;2.85;;;16.00;85.10;;;;;;2056186;28;20053;-71
2022/06/17 03:02:34;;;;;;;5.13;3.13;;;16.00;85.20;;;;;;2049208;28;20027;-71
2022/06/17 03:03:35;;;;;;;4.57;3.10;;;16.00;85.40;;;;;;2055881;28;20117;-71
2022/06/17 03:04:41;;;;;;;3.70;3.13;;;15.90;85.30;;;;;;2047857;28;20606;-70
2022/06/17 03:05:44;;;;;;;3.33;2.70;;;15.90;85.40;;;;;;2048485;28;20107;-70
2022/06/17 03:06:47;;;;;;;3.47;2.80;;;15.90;85.60;;;;;;2056196;28;20417;-70
2022/06/17 03:07:50;;;;;;;3.10;2.80;;;15.90;86.00;;;;;;2063530;28;20034;-71
2022/06/17 03:08:57;;;;;;;3.13;2.83;;;15.80;86.40;;;;;;2055525;28;20665;-71
2022/06/17 03:09:59;;;;;;;3.75;3.00;;;15.90;86.80;;;;;;2056254;28;20116;-72
2022/06/17 03:11:02;;;;;;;3.85;3.00;;;15.90;86.70;;;;;;2064097;28;20757;-71
2022/06/17 03:12:09;;;;;;;3.67;3.10;;;15.90;86.70;;;;;;2055837;28;20513;-71
2022/06/17 03:13:19;;;;;;;4.07;3.00;;;15.90;86.90;;;;;;2056705;28;20553;-70
2022/06/17 03:14:22;;;;;;;3.40;2.60;;;15.90;87.00;;;;;;2055584;28;20031;-70
2022/06/17 03:15:24;;;;;;;3.60;3.00;;;15.90;87.10;;;;;;2055681;28;20019;-71
2022/06/17 03:16:26;;;;;;;5.05;2.88;;;15.90;87.20;;;;;;2055552;28;20066;-72
2022/06/17 03:17:27;;;;;;;4.13;3.00;;;15.90;87.30;;;;;;2055952;28;20102;-70
2022/06/17 03:18:29;;;;;;;3.92;2.83;;;15.90;87.40;;;;;;2047507;29;20540;-71
2022/06/17 03:19:32;;;;;;;3.58;2.95;;;15.90;87.30;;;;;;2048101;28;20065;-70
2022/06/17 03:20:35;;;;;;;3.03;2.72;;;15.90;87.20;;;;;;2040254;29;20032;-71
2022/06/17 03:21:37;;;;;;;3.65;2.97;;;15.90;87.20;;;;;;2040457;28;20036;-70
2022/06/17 03:22:38;;;;;;;5.32;3.30;;;15.90;87.30;;;;;;2055894;28;20464;-70
2022/06/17 03:24:11;;;;;;;3.28;2.80;;;16.00;86.90;;;;;;2055667;28;20046;-70
2022/06/17 03:25:29;;;;;;;4.32;2.70;;;16.00;86.00;;;;;;2047787;28;20059;-70
2022/06/17 03:26:38;;;;;;;5.70;2.90;;;16.00;86.50;;;;;;2044099;28;20382;-71
2022/06/17 03:27:49;;;;;;;3.60;3.00;;;16.00;87.90;;;;;;2055655;28;20035;-71
2022/06/17 03:28:51;;;;;;;3.22;2.90;;;16.00;89.10;;;;;;2048868;28;20093;-72
2022/06/17 03:29:56;;;;;;;3.63;2.90;;;16.00;89.50;;;;;;2047813;28;20027;-71
2022/06/17 03:31:04;;;;;;;4.40;3.17;;;15.90;89.80;;;;;;2055558;28;20370;-72
2022/06/17 03:32:14;;;;;;;3.78;3.13;;;16.00;90.20;;;;;;2048970;28;20039;-70
2022/06/17 03:33:38;;;;;;;3.80;3.40;;;15.90;90.40;;;;;;2056635;28;20035;-71
2022/06/17 03:34:47;;;;;;;4.68;3.40;;;16.00;90.50;;;;;;2055698;28;20101;-71
2022/06/17 03:35:52;;;;;;;4.07;3.03;;;16.00;90.30;;;;;;2055641;28;20035;-71
2022/06/17 03:37:05;;;;;;;3.58;3.13;;;15.90;90.00;;;;;;2055778;28;20031;-71
2022/06/17 03:38:32;;;;;;;5.15;3.00;;;16.00;89.40;;;;;;2055929;28;20050;-71
2022/06/17 03:39:39;;;;;;;4.03;2.90;;;16.00;89.50;;;;;;2056319;28;20034;-71
2022/06/17 03:40:44;;;;;;;4.38;3.42;;;16.00;88.60;;;;;;2055608;28;20034;-71
2022/06/17 03:41:52;;;;;;;3.33;3.03;;;16.00;88.70;;;;;;2047602;29;20047;-72
2022/06/17 03:43:10;;;;;;;3.08;2.80;;;16.00;88.40;;;;;;2049246;28;20031;-71
2022/06/17 03:44:17;;;;;;;4.13;3.20;;;16.10;88.60;;;;;;2055512;28;20110;-70
2022/06/17 03:45:26;;;;;;;5.18;3.38;;;16.10;88.50;;;;;;2056238;28;20393;-71
2022/06/17 03:46:32;;;;;;;3.30;3.00;;;16.10;88.40;;;;;;2055626;28;20134;-70
2022/06/17 03:47:57;;;;;;;4.95;3.28;;;16.10;88.10;;;;;;2055521;28;20023;-71
2022/06/17 03:49:10;;;;;;;4.70;3.22;;;16.10;87.70;;;;;;2047073;28;20035;-70
2022/06/17 03:50:26;;;;;;;4.70;3.53;;;16.10;87.70;;;;;;2049308;28;20035;-71
2022/06/17 03:51:28;;;;;;;4.32;3.10;;;16.10;87.70;;;;;;2055564;28;20035;-71
2022/06/17 03:52:50;;;;;;;3.72;3.20;;;16.20;87.70;;;;;;2047857;28;20019;-71
2022/06/17 03:53:54;;;;;;;3.92;3.00;;;16.20;87.50;;;;;;2050693;28;20351;-71
2022/06/17 03:54:57;;;;;;;3.63;3.10;;;16.20;87.60;;;;;;2047929;28;20031;-72
2022/06/17 03:56:07;;;;;;;3.53;2.97;;;16.30;87.90;;;;;;2055598;28;20027;-71
2022/06/17 03:57:11;;;;;;;4.28;3.10;;;16.30;87.80;;;;;;2048826;28;20042;-71
2022/06/17 03:58:17;;;;;;;4.03;3.30;;;16.30;87.60;;;;;;2055610;28;20131;-70
2022/06/17 03:59:29;;;;;;;4.20;3.55;;;16.30;87.50;;;;;;2048414;28;20039;-71
2022/06/17 04:00:39;;;;;;;3.78;3.20;;;16.40;87.60;;;;;;2040500;29;20038;-71
2022/06/17 04:01:44;;;;;;;4.68;3.30;;;16.40;87.50;;;;;;2041839;28;20023;-70
2022/06/17 04:02:50;;;;;;;5.35;3.40;;;16.50;87.60;;;;;;2047482;28;20541;-71
2022/06/17 04:03:56;;;;;;;5.13;3.28;;;16.70;87.30;;;;;;2040398;28;20091;-71
2022/06/17 04:04:57;;;;;;;5.65;3.40;;;16.90;86.90;;;;;;2048050;28;20031;-70
2022/06/17 04:06:03;;;;;;;4.93;3.45;;;17.20;86.20;;;;;;2055528;28;20513;-70
2022/06/17 04:07:05;;;;;;;4.88;3.25;;;17.50;85.40;;;;;;2048351;28;20035;-71
2022/06/17 04:08:12;;;;;;;5.28;3.22;;;17.70;83.80;;;;;;2055366;28;20027;-71
2022/06/17 04:09:24;;;;;;;5.20;3.28;;;18.00;82.20;;;;;;2054979;28;20115;-71
2022/06/17 04:10:29;;;;;;;3.05;2.72;;;18.20;80.90;;;;;;2056765;28;20086;-70
2022/06/17 04:11:36;;;;;;;4.28;3.45;;;18.50;80.90;;;;;;2055659;28;20023;-70
2022/06/17 04:12:38;;;;;;;4.38;3.00;;;18.80;80.60;;;;;;2047932;28;20470;-70
2022/06/17 04:14:41;;;;;;;4.70;2.80;;;19.10;80.00;;;;;;2042488;28;20490;-69
2022/06/17 04:15:48;;;;;;;6.20;2.97;;;19.70;78.40;;;;;;2055987;28;20034;-70
2022/06/17 04:16:59;;;;;;;3.60;2.80;;;20.20;76.80;;;;;;2055197;28;20022;-70
2022/06/17 04:18:00;;;;;;;4.45;3.20;;;20.60;75.60;;;;;;2047318;28;20027;-70
2022/06/17 04:19:14;;;;;;;3.97;2.85;;;20.90;74.10;;;;;;2047035;28;20035;-69
2022/06/17 04:20:39;;;;;;;4.10;2.80;;;21.10;72.80;;;;;;2055140;28;20029;-70
2022/06/17 04:21:40;;;;;;;3.75;2.50;;;21.40;71.10;;;;;;2050054;28;20030;-70
2022/06/17 04:22:42;;;;;;;4.78;2.88;;;21.60;70.90;;;;;;2047212;29;20031;-70
2022/06/17 04:23:49;;;;;;;4.82;2.80;;;21.70;69.20;;;;;;2048144;28;20027;-69
2022/06/17 04:25:44;;;;;;;4.53;2.80;;;21.90;68.60;;;;;;2030984;29;20062;-71
2022/06/17 04:26:47;;;;;;;4.55;2.92;;;22.20;67.00;;;;;;2031061;29;20469;-70
2022/06/17 04:27:57;;;;;;;2.75;2.50;;;22.20;66.20;;;;;;2031089;29;20664;-69
2022/06/17 04:29:05;;;;;;;3.92;2.50;;;22.40;65.90;;;;;;2030835;29;20020;-69
2022/06/17 04:30:13;;;;;;;3.75;2.58;;;22.60;65.40;;;;;;2031016;29;20104;-70
2022/06/17 04:31:20;;;;;;;4.95;2.83;;;22.70;64.90;;;;;;2041137;28;20064;-70
2022/06/17 04:32:31;;;;;;;4.00;2.63;;;22.80;64.50;;;;;;2056397;28;20023;-70
2022/06/17 04:33:50;;;;;;;4.95;2.50;;;22.80;64.40;;;;;;2055373;28;20149;-70
2022/06/17 04:34:51;;;;;;;4.13;2.47;;;22.90;64.10;;;;;;2057630;28;20082;-69
2022/06/17 04:36:01;;;;;;;4.20;2.60;;;23.00;63.40;;;;;;2055261;28;20034;-70
2022/06/17 04:37:17;;;;;;;3.78;2.40;;;23.10;62.80;;;;;;2048623;28;20037;-70
2022/06/17 04:38:35;;;;;;;4.07;2.60;;;23.30;62.30;;;;;;2047524;28;20533;-71
2022/06/17 04:39:57;;;;;;;4.43;2.85;;;23.50;61.60;;;;;;2053095;28;20050;-69
2022/06/17 04:41:05;;;;;;;5.78;2.40;;;23.70;60.60;;;;;;2056522;28;20043;-70
2022/06/17 04:42:38;;;;;;;6.75;2.45;;;23.90;60.10;;;;;;2058944;28;20035;-70
2022/06/17 04:43:47;;;;;;;5.68;2.60;;;24.00;59.60;;;;;;2056237;28;20393;-71
2022/06/17 04:44:51;;;;;;;4.43;2.53;;;24.10;59.10;;;;;;2055395;28;20057;-70
2022/06/17 04:46:13;;;;;;;5.53;2.58;;;24.20;58.90;;;;;;2056005;28;20595;-70
2022/06/17 04:47:19;;;;;;;3.83;2.50;;;24.20;58.70;;;;;;2046130;28;20066;-70
2022/06/17 04:48:40;;;;;;;4.07;2.47;;;24.20;58.30;;;;;;2055337;28;20035;-70
2022/06/17 04:49:46;;;;;;;4.20;2.47;;;24.20;58.40;;;;;;2055636;28;20121;-71
2022/06/17 04:50:48;;;;;;;2.72;2.50;;;24.30;58.10;;;;;;2048443;28;20028;-71
2022/06/17 04:51:53;;;;;;;3.00;2.33;;;24.50;57.50;;;;;;2055886;28;20054;-71
2022/06/17 04:52:55;;;;;;;4.32;2.30;;;24.60;57.30;;;;;;2055425;28;20104;-70
2022/06/17 04:54:16;;;;;;;3.33;2.20;;;24.80;56.90;;;;;;2055969;28;20086;-70
2022/06/17 04:55:44;;;;;;;3.72;2.25;;;24.90;56.40;;;;;;2056366;28;20105;-71
2022/06/17 04:57:05;;;;;;;4.10;2.20;;;25.00;55.80;;;;;;2056011;28;20776;-71
2022/06/17 04:58:22;;;;;;;5.05;2.25;;;25.10;55.20;;;;;;2055588;28;20034;-70
2022/06/17 04:59:35;;;;;;;3.28;2.10;;;25.00;55.10;;;;;;2056724;28;20031;-70
2022/06/17 05:00:36;;;;;;;2.78;2.33;;;25.00;55.40;;;;;;2055416;28;20035;-72
2022/06/17 05:01:36;;;;;;;3.90;2.20;;;25.10;55.40;;;;;;2047476;28;20406;-69
2022/06/17 05:03:00;;;;;;;4.55;2.30;;;25.10;55.20;;;;;;2050164;28;20031;-69
2022/06/17 05:04:19;;;;;;;2.97;2.05;;;25.00;55.00;;;;;;2056189;28;20657;-69
2022/06/17 05:05:34;;;;;;;4.72;2.30;;;25.10;54.60;;;;;;2055920;28;20034;-69
2022/06/17 05:06:35;;;;;;;6.15;2.20;;;25.10;54.50;;;;;;2055012;28;20115;-69
2022/06/17 05:07:41;;;;;;;2.20;1.83;;;25.00;54.50;;;;;;2047111;28;20324;-69
2022/06/17 05:08:57;;;;;;;3.53;2.08;;;25.10;54.50;;;;;;2046770;29;20031;-69
2022/06/17 05:10:03;;;;;;;4.07;2.03;;;25.20;54.50;;;;;;2042936;28;20050;-69
2022/06/17 05:11:28;;;;;;;3.10;2.03;;;25.30;54.40;;;;;;2055477;28;20077;-69
2022/06/17 05:12:42;;;;;;;6.15;2.28;;;25.40;53.90;;;;;;2054792;28;20026;-69
2022/06/17 05:13:56;;;;;;;4.32;2.10;;;25.50;53.90;;;;;;2048351;28;20117;-69
2022/06/17 05:15:06;;;;;;;3.47;1.95;;;25.60;53.70;;;;;;2047020;29;20031;-69
2022/06/17 05:16:17;;;;;;;4.05;2.28;;;25.60;53.50;;;;;;2048341;28;20459;-69
2022/06/17 05:17:19;;;;;;;3.28;2.10;;;25.70;53.30;;;;;;2054861;28;20082;-70
2022/06/17 05:18:21;;;;;;;6.93;2.35;;;25.70;52.60;;;;;;2054652;28;20046;-70
2022/06/17 05:19:24;;;;;;;2.55;1.95;;;25.70;52.60;;;;;;2047267;28;20030;-70
2022/06/17 05:20:25;;;;;;;3.78;1.98;;;25.80;52.70;;;;;;2039027;29;20044;-70
2022/06/17 05:21:28;;;;;;;4.43;2.03;;;25.80;52.70;;;;;;2047328;28;20031;-70
2022/06/17 05:22:59;;;;;;;2.47;1.80;;;25.80;52.40;;;;;;2054924;28;20117;-70
2022/06/17 05:24:01;;;;;;;4.57;1.80;;;26.00;52.50;;;;;;2048214;28;20127;-70
2022/06/17 05:25:17;;;;;;;4.13;2.08;;;26.10;52.40;;;;;;2046939;28;20122;-70
2022/06/17 05:26:18;;;;;;;3.05;1.90;;;26.20;52.10;;;;;;2040924;29;20398;-70
2022/06/17 05:27:19;;;;;;;3.97;1.77;;;26.20;51.60;;;;;;2038954;28;20042;-70
2022/06/17 05:28:21;;;;;;;4.57;1.95;;;26.20;51.70;;;;;;2046609;29;20426;-71
2022/06/17 05:29:25;;;;;;;2.42;2.20;;;26.20;51.50;;;;;;2055281;28;20023;-70
2022/06/17 05:30:37;;;;;;;2.15;1.90;;;26.20;51.20;;;;;;2062130;28;20018;-70
2022/06/17 05:31:40;;;;;;;;;;;26.10;51.00;;;;;;2048468;28;20023;-70
2022/06/17 05:32:46;;;;;;;6.15;1.90;;;26.10;51.00;;;;;;2054713;28;19924;-70
2022/06/17 05:33:48;;;;;;;3.97;1.80;;;26.00;51.10;;;;;;2055435;28;20035;-70
2022/06/17 05:34:49;;;;;;;3.67;1.98;;;25.90;51.00;;;;;;2054672;28;20030;-70
2022/06/17 05:35:50;;;;;;;3.40;1.92;;;26.00;50.90;;;;;;2054633;28;20421;-69
2022/06/17 05:36:52;;;;;;;4.50;1.92;;;26.00;50.70;;;;;;2054723;28;20038;-70
2022/06/17 05:37:54;;;;;;;2.10;1.80;;;26.00;50.80;;;;;;2046938;28;20086;-69
2022/06/17 05:38:54;;;;;;;3.30;1.80;;;26.00;50.40;;;;;;2054250;28;20034;-70
2022/06/17 05:39:55;;;;;;;5.05;1.50;;;25.90;50.40;;;;;;2062690;28;20038;-70
2022/06/17 05:40:56;;;;;;;3.55;1.65;;;26.00;50.40;;;;;;2054593;28;20523;-71
2022/06/17 05:41:57;;;;;;;4.10;2.00;;;26.10;50.20;;;;;;2054647;28;20109;-70
2022/06/17 05:42:57;;;;;;;4.13;2.00;;;26.10;49.90;;;;;;2046497;29;20027;-69
2022/06/17 05:43:58;;;;;;;5.32;2.10;;;26.10;50.10;;;;;;2046626;29;20033;-69
2022/06/17 05:45:24;;;;;;;2.10;1.80;;;26.10;50.10;;;;;;2054782;28;20102;-69
2022/06/17 05:46:36;;;;;;;5.30;1.75;;;26.20;50.30;;;;;;2054958;28;20046;-69
2022/06/17 05:47:48;;;;;;;3.15;1.80;;;26.30;50.20;;;;;;2054736;28;20082;-71
2022/06/17 05:48:56;;;;;;;2.40;1.58;;;26.40;49.40;;;;;;2047403;28;20035;-72
2022/06/17 05:50:25;;;;;;;4.25;1.80;;;26.40;49.50;;;;;;2042190;28;20023;-70
2022/06/17 05:51:44;;;;;;;2.10;1.70;;;26.50;49.40;;;;;;2055408;28;20098;-69
2022/06/17 05:53:05;;;;;;;2.58;1.60;;;26.40;48.60;;;;;;2055732;28;20027;-69
2022/06/17 05:54:15;;;;;;;5.65;1.80;;;26.30;48.90;;;;;;2055116;28;20031;-70
2022/06/17 05:55:31;;;;;;;3.00;1.80;;;26.00;49.50;;;;;;2056961;28;20043;-70
2022/06/17 05:56:32;;;;;;;2.50;1.70;;;25.90;49.30;;;;;;2062806;28;20516;-71
2022/06/17 05:57:33;;;;;;;3.88;1.70;;;25.90;49.40;;;;;;2055632;28;20015;-70